Terminal Aerodrome Forecast
Issued by NWS Buffalo, NY

Home | Current Version | Previous Version | Text Only | Print | Product List | Glossary On
Versions: 1 2 3 4 5 6 7 8 9 10 11 12 13 14 15 16 17 18 19 20 21 22 23 24 25 26
000
FTUS41 KBUF 011100
TAFART
TAF
KART 011120Z 0112/0212 19006KT P6SM VCSH BKN050 OVC100
     FM011400 21009KT P6SM SCT060
     FM012200 23004KT P6SM SKC
     FM020700 18005KT P6SM BKN060 BKN150=

USA.gov is the U.S. government's official web portal to all federal, state and local government web resources and services.